createdAt,value
2022-09-27T00:02:39.194Z,17.90
2022-09-27T00:05:54.329Z,16.95
2022-09-27T00:09:03.111Z,15.98
2022-09-27T00:12:12.287Z,16.27
2022-09-27T00:15:21.041Z,18.52
2022-09-27T00:18:29.422Z,15.52
2022-09-27T00:21:37.932Z,16.75
2022-09-27T00:24:52.347Z,16.90
2022-09-27T00:27:54.096Z,16.20
2022-09-27T00:31:09.347Z,19.50
2022-09-27T00:34:29.299Z,21.60
2022-09-27T00:37:37.379Z,16.50
2022-09-27T00:40:59.381Z,18.08
2022-09-27T00:44:37.836Z,20.60
2022-09-27T00:48:01.332Z,20.97
2022-09-27T00:51:11.076Z,19.77
2022-09-27T00:54:26.309Z,17.83
2022-09-27T00:57:35.317Z,17.67
2022-09-27T01:00:48.595Z,23.70
2022-09-27T01:04:05.354Z,21.00
2022-09-27T01:07:14.096Z,19.35
2022-09-27T01:10:29.320Z,21.65
2022-09-27T01:13:48.355Z,19.48
2022-09-27T01:17:28.440Z,16.23
2022-09-27T01:21:15.334Z,20.67
2022-09-27T01:24:45.237Z,20.55
2022-09-27T01:28:25.347Z,19.48
2022-09-27T01:31:54.355Z,17.60
2022-09-27T01:35:07.743Z,20.27
2022-09-27T01:38:36.363Z,18.17
2022-09-27T01:42:12.803Z,21.37
2022-09-27T01:45:38.644Z,19.73
2022-09-27T01:49:01.356Z,15.05
2022-09-27T01:52:14.338Z,23.83
2022-09-27T01:55:28.487Z,19.77
2022-09-27T01:58:54.391Z,17.80
2022-09-27T02:02:00.216Z,25.42
2022-09-27T02:05:18.351Z,25.85
2022-09-27T02:08:43.344Z,24.67
2022-09-27T02:11:56.358Z,30.20
2022-09-27T02:15:18.408Z,25.45
2022-09-27T02:18:39.403Z,22.92
2022-09-27T02:22:01.065Z,18.20
2022-09-27T02:25:40.348Z,16.23
2022-09-27T02:28:56.235Z,15.97
2022-09-27T02:32:11.394Z,19.17
2022-09-27T02:35:32.448Z,15.30
2022-09-27T02:38:34.588Z,17.77
2022-09-27T02:41:49.391Z,19.10
2022-09-27T02:44:57.462Z,18.97
2022-09-27T02:48:38.380Z,14.85
2022-09-27T02:52:18.388Z,17.35
2022-09-27T02:55:57.383Z,15.30
2022-09-27T02:59:10.684Z,20.40
2022-09-27T03:02:45.486Z,23.07
2022-09-27T03:06:01.418Z,26.92
2022-09-27T03:09:20.941Z,23.62
2022-09-27T03:12:35.404Z,22.85
2022-09-27T03:15:37.129Z,22.80
2022-09-27T03:18:51.386Z,22.83
2022-09-27T03:21:53.153Z,25.23
2022-09-27T03:25:08.393Z,25.20
2022-09-27T03:28:17.436Z,20.92
2022-09-27T03:31:26.489Z,30.30
2022-09-27T03:34:35.003Z,24.90
2022-09-27T03:37:49.387Z,23.40
2022-09-27T03:40:51.288Z,24.25
2022-09-27T03:44:06.399Z,24.35
2022-09-27T03:47:14.479Z,25.23
2022-09-27T03:50:36.391Z,30.13
2022-09-27T03:53:51.399Z,26.45
2022-09-27T03:56:53.199Z,27.67
2022-09-27T04:00:07.399Z,31.37
2022-09-27T04:03:15.958Z,31.83
2022-09-27T04:06:24.517Z,32.10
2022-09-27T04:09:32.915Z,40.20
2022-09-27T04:12:41.428Z,31.62
2022-09-27T04:15:52.379Z,35.60
2022-09-27T04:19:07.414Z,30.17
2022-09-27T04:22:15.464Z,37.20
2022-09-27T04:25:30.441Z,31.98
2022-09-27T04:28:45.432Z,33.35
2022-09-27T04:31:47.146Z,39.75
2022-09-27T04:35:01.494Z,35.10
2022-09-27T04:38:10.033Z,34.27
2022-09-27T04:41:18.452Z,40.08
2022-09-27T04:44:33.471Z,38.50
2022-09-27T04:47:53.483Z,41.13
2022-09-27T04:51:03.258Z,40.27
2022-09-27T04:54:18.443Z,49.50
2022-09-27T04:57:26.485Z,43.67
2022-09-27T05:00:41.465Z,40.33
2022-09-27T05:03:50.055Z,39.15
2022-09-27T05:06:58.601Z,44.90
2022-09-27T05:10:14.442Z,39.90
2022-09-27T05:13:16.554Z,42.20
2022-09-27T05:16:33.918Z,52.38
2022-09-27T05:19:48.470Z,43.85
2022-09-27T05:22:50.298Z,46.53
2022-09-27T05:26:09.502Z,42.40
2022-09-27T05:29:18.113Z,42.33
2022-09-27T05:32:26.483Z,43.13
2022-09-27T05:35:45.378Z,42.95
2022-09-27T05:38:54.502Z,44.27
2022-09-27T05:42:03.516Z,44.83
2022-09-27T05:45:18.532Z,42.85
2022-09-27T05:48:33.487Z,44.00
2022-09-27T05:51:42.116Z,39.70
2022-09-27T05:54:56.455Z,39.50
2022-09-27T05:58:10.501Z,40.87
2022-09-27T06:01:26.543Z,38.45
2022-09-27T06:04:35.146Z,44.22
2022-09-27T06:07:44.550Z,42.58
2022-09-27T06:11:08.560Z,43.73
2022-09-27T06:14:16.492Z,45.63
2022-09-27T06:17:25.117Z,40.17
2022-09-27T06:20:33.594Z,42.55
2022-09-27T06:23:53.489Z,41.63
2022-09-27T06:27:02.533Z,50.00
2022-09-27T06:30:20.532Z,59.30
2022-09-27T06:33:29.109Z,53.95
2022-09-27T06:36:37.504Z,40.85
2022-09-27T06:39:52.687Z,49.88
2022-09-27T06:43:10.052Z,62.70
2022-09-27T06:46:18.647Z,44.20
2022-09-27T06:49:27.108Z,45.53
2022-09-27T06:52:42.516Z,53.87
2022-09-27T06:55:50.587Z,36.90
2022-09-27T06:58:59.103Z,41.07
2022-09-27T07:02:07.542Z,53.93
2022-09-27T07:05:20.159Z,50.92
2022-09-27T07:08:35.525Z,41.08
2022-09-27T07:11:43.688Z,35.55
2022-09-27T07:14:59.516Z,30.93
2022-09-27T07:18:08.882Z,32.30
2022-09-27T07:21:17.605Z,32.33
2022-09-27T07:24:32.576Z,28.58
2022-09-27T07:27:41.595Z,32.13
2022-09-27T07:31:01.604Z,28.53
2022-09-27T07:34:16.570Z,29.23
2022-09-27T07:37:24.595Z,27.73
2022-09-27T07:40:33.248Z,41.03
2022-09-27T07:43:48.595Z,27.87
2022-09-27T07:46:50.410Z,26.93
2022-09-27T07:50:13.738Z,30.47
2022-09-27T07:53:15.639Z,26.67
2022-09-27T07:56:30.575Z,25.83
2022-09-27T07:59:32.532Z,25.23
2022-09-27T08:02:48.600Z,26.13
2022-09-27T08:05:56.609Z,30.47
2022-09-27T08:09:06.975Z,27.15
2022-09-27T08:12:15.572Z,27.83
2022-09-27T08:15:30.628Z,26.12
2022-09-27T08:18:45.587Z,25.93
2022-09-27T08:21:47.700Z,28.57
2022-09-27T08:25:02.542Z,29.42
2022-09-27T08:28:17.604Z,32.28
2022-09-27T08:31:32.670Z,31.27
2022-09-27T08:34:34.879Z,32.13
2022-09-27T08:37:50.616Z,27.93
2022-09-27T08:40:59.269Z,25.80
2022-09-27T08:44:34.579Z,39.92
2022-09-27T08:48:08.662Z,29.15
2022-09-27T08:51:13.517Z,24.87
2022-09-27T08:54:33.772Z,38.80
2022-09-27T08:57:48.661Z,28.75
2022-09-27T09:00:53.537Z,28.50
2022-09-27T09:04:10.752Z,25.02
2022-09-27T09:07:41.119Z,23.27
2022-09-27T09:11:01.686Z,29.30
2022-09-27T09:14:44.621Z,31.70
2022-09-27T09:18:20.668Z,32.17
2022-09-27T09:21:46.599Z,30.67
2022-09-27T09:25:11.583Z,27.10
2022-09-27T09:28:42.053Z,23.13
2022-09-27T09:32:07.705Z,27.65
2022-09-27T09:35:31.857Z,28.00
2022-09-27T09:38:47.766Z,24.90
2022-09-27T09:42:15.807Z,28.23
2022-09-27T09:45:36.664Z,26.77
2022-09-27T09:48:58.779Z,29.05
2022-09-27T09:52:16.487Z,29.20
2022-09-27T09:55:29.598Z,28.50
2022-09-27T09:59:06.646Z,28.00
2022-09-27T10:02:31.438Z,23.63
2022-09-27T10:05:40.631Z,25.88
2022-09-27T10:08:49.587Z,35.47
2022-09-27T10:12:04.649Z,25.10
2022-09-27T10:15:13.616Z,22.80
2022-09-27T10:18:22.371Z,45.67
2022-09-27T10:21:36.727Z,27.42
2022-09-27T10:25:06.668Z,27.23
2022-09-27T10:28:14.632Z,23.98
2022-09-27T10:31:23.812Z,26.50
2022-09-27T10:34:43.671Z,21.27
2022-09-27T10:37:52.306Z,20.88
2022-09-27T10:41:29.669Z,30.45
2022-09-27T10:44:38.716Z,22.10
2022-09-27T10:47:54.360Z,23.13
2022-09-27T10:51:31.643Z,21.23
2022-09-27T10:54:36.548Z,31.67
2022-09-27T10:57:58.677Z,22.45
2022-09-27T11:01:16.676Z,27.48
2022-09-27T11:04:31.802Z,27.57
2022-09-27T11:07:57.697Z,27.27
2022-09-27T11:11:27.663Z,26.52
2022-09-27T11:14:36.668Z,23.75
2022-09-27T11:18:06.720Z,24.50
2022-09-27T11:21:33.676Z,25.83
2022-09-27T11:25:06.927Z,26.70
2022-09-27T11:28:55.684Z,23.15
2022-09-27T11:32:22.687Z,19.60
2022-09-27T11:35:57.863Z,20.95
2022-09-27T11:39:27.697Z,20.20
2022-09-27T11:42:53.547Z,22.43
2022-09-27T11:46:31.959Z,21.58
2022-09-27T11:50:21.920Z,26.05
2022-09-27T11:53:54.666Z,24.35
2022-09-27T11:57:49.737Z,23.90
2022-09-27T12:01:10.463Z,19.60
2022-09-27T12:04:46.815Z,21.40
2022-09-27T12:08:25.673Z,19.67
2022-09-27T12:11:37.314Z,20.15
2022-09-27T12:15:01.740Z,28.77
2022-09-27T12:18:36.705Z,19.37
2022-09-27T12:21:38.773Z,21.73
2022-09-27T12:24:54.652Z,20.33
2022-09-27T12:28:22.435Z,43.40
2022-09-27T12:31:33.615Z,27.90
2022-09-27T12:35:15.722Z,27.47
2022-09-27T12:38:45.741Z,26.15
2022-09-27T12:41:55.104Z,23.80
2022-09-27T12:45:10.690Z,24.80
2022-09-27T12:48:37.754Z,23.20
2022-09-27T12:51:53.664Z,30.30
2022-09-27T12:55:44.773Z,23.65
2022-09-27T12:59:08.871Z,25.52
2022-09-27T13:03:11.158Z,21.52
2022-09-27T13:06:45.798Z,25.63
2022-09-27T13:10:13.742Z,70.07
2022-09-27T13:13:23.932Z,35.42
2022-09-27T13:16:32.756Z,29.15
2022-09-27T13:19:43.929Z,20.48
2022-09-27T13:22:58.735Z,18.60
2022-09-27T13:26:09.979Z,20.20
2022-09-27T13:29:27.483Z,25.73
2022-09-27T13:32:42.723Z,61.17
2022-09-27T13:36:06.824Z,17.58
2022-09-27T13:39:24.712Z,18.37
2022-09-27T13:42:44.775Z,16.00
2022-09-27T13:45:57.060Z,10.30
2022-09-27T13:49:25.788Z,15.70
2022-09-27T13:52:43.760Z,19.48
2022-09-27T13:55:59.731Z,17.80
2022-09-27T13:59:12.755Z,15.60
2022-09-27T14:02:27.533Z,13.55
2022-09-27T14:05:44.762Z,15.60
2022-09-27T14:09:04.787Z,11.98
2022-09-27T14:12:26.879Z,11.43
2022-09-27T14:15:37.763Z,14.83
2022-09-27T14:18:51.596Z,47.78
2022-09-27T14:22:08.808Z,15.20
2022-09-27T14:25:24.765Z,16.87
2022-09-27T14:28:30.126Z,16.97
2022-09-27T14:31:44.872Z,16.33
2022-09-27T14:34:47.082Z,14.15
2022-09-27T14:38:15.818Z,9.40
2022-09-27T14:41:43.811Z,10.98
2022-09-27T14:44:45.954Z,6.90
2022-09-27T14:48:00.798Z,6.20
2022-09-27T14:51:37.784Z,7.28
2022-09-27T14:54:55.655Z,6.95
2022-09-27T14:58:24.187Z,7.35
2022-09-27T15:01:39.780Z,6.17
2022-09-27T15:04:49.986Z,5.10
2022-09-27T15:08:08.864Z,9.07
2022-09-27T15:11:11.120Z,6.53
2022-09-27T15:14:26.871Z,6.20
2022-09-27T15:17:49.770Z,5.30
2022-09-27T15:20:54.342Z,9.13
2022-09-27T15:24:09.856Z,7.80
2022-09-27T15:27:24.876Z,5.12
2022-09-27T15:30:46.949Z,5.68
2022-09-27T15:33:57.056Z,7.57
2022-09-27T15:37:06.840Z,7.13
2022-09-27T15:40:51.957Z,4.22
2022-09-27T15:44:06.841Z,3.95
2022-09-27T15:47:28.503Z,6.65
2022-09-27T15:50:49.823Z,3.83
2022-09-27T15:53:57.839Z,4.43
2022-09-27T15:57:12.295Z,3.75
2022-09-27T16:00:27.850Z,5.00
2022-09-27T16:03:29.789Z,6.75
2022-09-27T16:06:44.848Z,5.57
2022-09-27T16:09:53.386Z,4.47
2022-09-27T16:13:01.813Z,2.65
2022-09-27T16:16:16.679Z,5.60
2022-09-27T16:19:25.850Z,5.50
2022-09-27T16:22:37.458Z,4.97
2022-09-27T16:25:51.835Z,5.90
2022-09-27T16:28:59.795Z,4.35
2022-09-27T16:32:14.840Z,4.20
2022-09-27T16:35:24.185Z,5.32
2022-09-27T16:38:32.827Z,4.40
2022-09-27T16:41:41.825Z,4.87
2022-09-27T16:44:49.861Z,4.10
2022-09-27T16:47:59.496Z,4.65
2022-09-27T16:51:24.840Z,6.00
2022-09-27T16:54:27.707Z,6.90
2022-09-27T16:57:42.835Z,9.80
2022-09-27T17:00:52.021Z,6.47
2022-09-27T17:03:59.855Z,5.57
2022-09-27T17:07:08.499Z,15.40
2022-09-27T17:10:17.861Z,6.53
2022-09-27T17:13:32.873Z,4.93
2022-09-27T17:16:47.857Z,4.45
2022-09-27T17:19:49.628Z,5.12
2022-09-27T17:23:04.882Z,5.45
2022-09-27T17:26:17.652Z,4.47
2022-09-27T17:29:25.883Z,3.53
2022-09-27T17:32:34.420Z,7.03
2022-09-27T17:35:48.880Z,3.85
2022-09-27T17:38:52.184Z,4.65
2022-09-27T17:42:06.914Z,9.73
2022-09-27T17:45:09.196Z,5.90
2022-09-27T17:48:30.872Z,4.62
2022-09-27T17:51:41.211Z,7.55
2022-09-27T17:54:49.919Z,8.80
2022-09-27T17:57:58.468Z,5.43
2022-09-27T18:01:09.874Z,7.57
2022-09-27T18:04:19.095Z,7.18
2022-09-27T18:07:33.896Z,10.32
2022-09-27T18:10:35.778Z,6.90
2022-09-27T18:13:55.961Z,12.97
2022-09-27T18:17:04.784Z,9.30
2022-09-27T18:20:13.873Z,8.38
2022-09-27T18:23:28.867Z,7.50
2022-09-27T18:26:43.907Z,8.88
2022-09-27T18:29:45.761Z,9.27
2022-09-27T18:33:00.878Z,9.83
2022-09-27T18:36:09.868Z,8.10
2022-09-27T18:39:24.892Z,6.80
2022-09-27T18:42:33.532Z,8.23
2022-09-27T18:45:42.887Z,6.53
2022-09-27T18:49:06.938Z,8.57
2022-09-27T18:52:15.537Z,8.18
2022-09-27T18:55:25.487Z,7.05
2022-09-27T18:58:41.893Z,7.12
2022-09-27T19:01:47.267Z,9.87
2022-09-27T19:05:01.900Z,13.43
2022-09-27T19:08:16.949Z,14.30
2022-09-27T19:11:24.885Z,6.80
2022-09-27T19:14:39.988Z,5.70
2022-09-27T19:17:50.828Z,8.80
2022-09-27T19:20:59.913Z,7.07
2022-09-27T19:24:08.599Z,7.22
2022-09-27T19:27:16.931Z,7.43
2022-09-27T19:30:25.579Z,7.72
2022-09-27T19:33:42.916Z,7.10
2022-09-27T19:36:44.696Z,9.30
2022-09-27T19:39:58.987Z,7.53
2022-09-27T19:43:13.917Z,5.75
2022-09-27T19:46:23.995Z,9.27
2022-09-27T19:49:46.921Z,8.40
2022-09-27T19:52:55.471Z,6.17
2022-09-27T19:56:06.940Z,5.60
2022-09-27T19:59:21.953Z,4.87
2022-09-27T20:02:31.138Z,5.25
2022-09-27T20:05:39.499Z,5.60
2022-09-27T20:08:54.927Z,4.77
2022-09-27T20:11:56.725Z,5.85
2022-09-27T20:15:12.923Z,5.87
2022-09-27T20:18:21.910Z,6.10
2022-09-27T20:21:34.942Z,6.37
2022-09-27T20:24:43.552Z,5.33
2022-09-27T20:27:52.039Z,6.00
2022-09-27T20:31:03.203Z,6.75
2022-09-27T20:34:20.966Z,7.65
2022-09-27T20:37:22.784Z,4.67
2022-09-27T20:40:37.966Z,5.90
2022-09-27T20:43:47.887Z,7.47
2022-09-27T20:46:56.042Z,4.95
2022-09-27T20:50:11.958Z,5.37
2022-09-27T20:53:26.955Z,5.77
2022-09-27T20:56:42.018Z,5.47
2022-09-27T20:59:50.828Z,4.55
2022-09-27T21:02:58.957Z,5.87
2022-09-27T21:06:08.019Z,4.78
2022-09-27T21:09:22.934Z,3.97
2022-09-27T21:12:24.758Z,4.17
2022-09-27T21:15:40.142Z,6.93
2022-09-27T21:18:51.633Z,5.07
2022-09-27T21:21:59.971Z,4.78
2022-09-27T21:25:16.020Z,6.70
2022-09-27T21:28:24.971Z,3.23
2022-09-27T21:31:34.144Z,4.60
2022-09-27T21:34:48.992Z,5.12
2022-09-27T21:37:50.845Z,5.53
2022-09-27T21:41:11.983Z,6.70
2022-09-27T21:44:27.004Z,4.33
2022-09-27T21:47:35.038Z,4.57
2022-09-27T21:50:56.993Z,4.20
2022-09-27T21:54:14.977Z,3.60
2022-09-27T21:57:16.750Z,4.27
2022-09-27T22:00:31.075Z,2.67
2022-09-27T22:03:36.853Z,3.70
2022-09-27T22:06:52.014Z,3.22
2022-09-27T22:10:07.025Z,4.45
2022-09-27T22:13:15.008Z,1.73
2022-09-27T22:16:24.319Z,3.83
2022-09-27T22:19:38.997Z,3.75
2022-09-27T22:22:40.782Z,4.80
2022-09-27T22:25:54.988Z,3.58
2022-09-27T22:29:04.032Z,2.07
2022-09-27T22:32:19.016Z,2.63
2022-09-27T22:35:27.645Z,2.72
2022-09-27T22:38:37.040Z,1.90
2022-09-27T22:41:52.017Z,3.08
2022-09-27T22:45:07.038Z,3.50
2022-09-27T22:48:15.001Z,2.40
2022-09-27T22:51:30.342Z,1.35
2022-09-27T22:54:39.015Z,4.07
2022-09-27T22:57:47.663Z,1.67
2022-09-27T23:01:02.076Z,2.00
2022-09-27T23:04:03.936Z,2.77
2022-09-27T23:07:19.074Z,2.05
2022-09-27T23:10:27.753Z,2.37
2022-09-27T23:13:39.035Z,3.70
2022-09-27T23:16:48.135Z,1.67
2022-09-27T23:20:03.034Z,2.07
2022-09-27T23:23:04.900Z,1.17
2022-09-27T23:26:23.048Z,2.78
2022-09-27T23:29:24.836Z,1.83
2022-09-27T23:32:40.102Z,4.00
2022-09-27T23:35:56.023Z,2.63
2022-09-27T23:38:59.625Z,2.42
2022-09-27T23:42:14.076Z,3.67
2022-09-27T23:45:23.059Z,2.60
2022-09-27T23:48:38.048Z,4.93
2022-09-27T23:52:01.088Z,2.70
2022-09-27T23:55:09.063Z,2.62
2022-09-27T23:58:17.836Z,2.05
